createdAt,value
2018-07-16T00:00:54.291Z,1014.58
2018-07-16T00:01:54.271Z,1014.60
2018-07-16T00:02:54.248Z,1014.58
2018-07-16T00:03:54.221Z,1014.59
2018-07-16T00:04:54.200Z,1014.59
2018-07-16T00:05:54.179Z,1014.54
2018-07-16T00:06:54.152Z,1014.52
2018-07-16T00:07:54.126Z,1014.56
2018-07-16T00:08:54.102Z,1014.54
2018-07-16T00:09:54.080Z,1014.49
2018-07-16T00:10:54.061Z,1014.50
2018-07-16T00:11:54.035Z,1014.52
2018-07-16T00:12:54.013Z,1014.47
2018-07-16T00:13:53.988Z,1014.46
2018-07-16T00:14:53.999Z,1014.49
2018-07-16T00:15:53.941Z,1014.48
2018-07-16T00:16:53.920Z,1014.49
2018-07-16T00:17:53.892Z,1014.45
2018-07-16T00:18:53.870Z,1014.44
2018-07-16T00:19:53.847Z,1014.46
2018-07-16T00:20:53.824Z,1014.42
2018-07-16T00:21:53.800Z,1014.45
2018-07-16T00:22:53.777Z,1014.45
2018-07-16T00:23:53.756Z,1014.44
2018-07-16T00:24:53.736Z,1014.45
2018-07-16T00:25:53.708Z,1014.47
2018-07-16T00:26:53.687Z,1014.43
2018-07-16T00:27:53.669Z,1014.48
2018-07-16T00:28:53.637Z,1014.50
2018-07-16T00:29:53.616Z,1014.50
2018-07-16T00:30:53.590Z,1014.48
2018-07-16T00:31:53.569Z,1014.46
2018-07-16T00:32:53.544Z,1014.48
2018-07-16T00:33:53.521Z,1014.48
2018-07-16T00:34:53.498Z,1014.47
2018-07-16T00:35:53.473Z,1014.44
2018-07-16T00:36:53.449Z,1014.45
2018-07-16T00:37:53.426Z,1014.45
2018-07-16T00:38:53.405Z,1014.46
2018-07-16T00:39:53.381Z,1014.44
2018-07-16T00:40:53.358Z,1014.44
2018-07-16T00:41:53.339Z,1014.40
2018-07-16T00:42:53.310Z,1014.40
2018-07-16T00:43:53.285Z,1014.42
2018-07-16T00:44:53.264Z,1014.41
2018-07-16T00:45:53.242Z,1014.43
2018-07-16T00:46:53.218Z,1014.42
2018-07-16T00:47:53.199Z,1014.35
2018-07-16T00:48:53.170Z,1014.36
2018-07-16T00:49:53.147Z,1014.36
2018-07-16T00:50:53.129Z,1014.36
2018-07-16T00:51:53.101Z,1014.36
2018-07-16T00:52:53.075Z,1014.38
2018-07-16T00:53:53.051Z,1014.39
2018-07-16T00:54:53.028Z,1014.36
2018-07-16T00:55:53.004Z,1014.38
2018-07-16T00:56:52.979Z,1014.35
2018-07-16T00:57:52.955Z,1014.35
2018-07-16T00:58:52.946Z,1014.34
2018-07-16T00:59:52.913Z,1014.32
2018-07-16T01:00:52.887Z,1014.34
2018-07-16T01:01:52.862Z,1014.32
2018-07-16T01:02:52.843Z,1014.33
2018-07-16T01:03:52.814Z,1014.36
2018-07-16T01:04:52.791Z,1014.31
2018-07-16T01:05:52.766Z,1014.33
2018-07-16T01:06:52.744Z,1014.37
2018-07-16T01:07:52.719Z,1014.37
2018-07-16T01:08:52.696Z,1014.35
2018-07-16T01:09:52.672Z,1014.38
2018-07-16T01:10:52.649Z,1014.37
2018-07-16T01:11:52.625Z,1014.35
2018-07-16T01:12:52.604Z,1014.36
2018-07-16T01:13:52.580Z,1014.35
2018-07-16T01:14:52.561Z,1014.36
2018-07-16T01:15:52.530Z,1014.36
2018-07-16T01:16:52.513Z,1014.34
2018-07-16T01:17:52.482Z,1014.39
2018-07-16T01:18:52.467Z,1014.35
2018-07-16T01:19:52.441Z,1014.37
2018-07-16T01:20:52.414Z,1014.38
2018-07-16T01:21:52.389Z,1014.39
2018-07-16T01:22:52.369Z,1014.39
2018-07-16T01:23:52.345Z,1014.40
2018-07-16T01:24:52.520Z,1014.36
2018-07-16T01:25:52.293Z,1014.41
2018-07-16T01:26:52.271Z,1014.40
2018-07-16T01:27:52.245Z,1014.40
2018-07-16T01:28:52.225Z,1014.41
2018-07-16T01:29:52.203Z,1014.40
2018-07-16T01:30:52.176Z,1014.37
2018-07-16T01:31:52.153Z,1014.39
2018-07-16T01:32:52.128Z,1014.37
2018-07-16T01:33:52.104Z,1014.37
2018-07-16T01:34:52.080Z,1014.35
2018-07-16T01:35:52.057Z,1014.35
2018-07-16T01:36:52.031Z,1014.40
2018-07-16T01:37:52.006Z,1014.39
2018-07-16T01:38:51.981Z,1014.41
2018-07-16T01:39:51.964Z,1014.42
2018-07-16T01:40:51.936Z,1014.43
2018-07-16T01:41:51.910Z,1014.41
2018-07-16T01:42:51.886Z,1014.41
2018-07-16T01:43:51.864Z,1014.43
2018-07-16T01:44:51.841Z,1014.40
2018-07-16T01:45:52.217Z,1014.41
2018-07-16T01:46:51.793Z,1014.43
2018-07-16T01:47:51.767Z,1014.40
2018-07-16T01:48:51.743Z,1014.40
2018-07-16T01:49:51.718Z,1014.39
2018-07-16T01:50:51.694Z,1014.40
2018-07-16T01:51:51.671Z,1014.36
2018-07-16T01:52:51.653Z,1014.38
2018-07-16T01:53:51.624Z,1014.35
2018-07-16T01:54:51.600Z,1014.32
2018-07-16T01:55:51.576Z,1014.32
2018-07-16T01:56:51.552Z,1014.34
2018-07-16T01:57:51.526Z,1014.28
2018-07-16T01:58:51.504Z,1014.27
2018-07-16T01:59:51.476Z,1014.26
2018-07-16T02:00:51.454Z,1014.23
2018-07-16T02:01:51.431Z,1014.26
2018-07-16T02:02:51.405Z,1014.27
2018-07-16T02:03:51.383Z,1014.26
2018-07-16T02:04:51.358Z,1014.25
2018-07-16T02:05:51.334Z,1014.23
2018-07-16T02:06:51.310Z,1014.22
2018-07-16T02:07:51.283Z,1014.21
2018-07-16T02:08:51.261Z,1014.19
2018-07-16T02:09:51.236Z,1014.18
2018-07-16T02:10:51.219Z,1014.20
2018-07-16T02:11:51.188Z,1014.16
2018-07-16T02:12:51.163Z,1014.19
2018-07-16T02:13:51.139Z,1014.19
2018-07-16T02:14:51.115Z,1014.17
2018-07-16T02:15:51.097Z,1014.19
2018-07-16T02:16:51.070Z,1014.21
2018-07-16T02:17:51.044Z,1014.17
2018-07-16T02:18:51.018Z,1014.19
2018-07-16T02:19:50.993Z,1014.20
2018-07-16T02:20:50.970Z,1014.24
2018-07-16T02:21:50.943Z,1014.20
2018-07-16T02:22:50.920Z,1014.20
2018-07-16T02:23:50.897Z,1014.18
2018-07-16T02:24:50.875Z,1014.17
2018-07-16T02:25:50.851Z,1014.17
2018-07-16T02:26:50.826Z,1014.18
2018-07-16T02:27:50.803Z,1014.14
2018-07-16T02:28:50.776Z,1014.16
2018-07-16T02:29:50.752Z,1014.11
2018-07-16T02:30:50.728Z,1014.11
2018-07-16T02:31:50.703Z,1014.11
2018-07-16T02:32:50.678Z,1014.09
2018-07-16T02:33:50.653Z,1014.08
2018-07-16T02:34:50.628Z,1014.10
2018-07-16T02:35:50.608Z,1014.06
2018-07-16T02:36:50.583Z,1014.04
2018-07-16T02:37:50.713Z,1014.06
2018-07-16T02:38:50.544Z,1014.08
2018-07-16T02:39:50.510Z,1014.05
2018-07-16T02:40:50.544Z,1014.07
2018-07-16T02:41:50.458Z,1014.04
2018-07-16T02:42:50.440Z,1014.07
2018-07-16T02:43:50.410Z,1014.11
2018-07-16T02:44:50.389Z,1014.07
2018-07-16T02:45:50.362Z,1014.09
2018-07-16T02:46:50.337Z,1014.13
2018-07-16T02:47:50.321Z,1014.07
2018-07-16T02:48:50.294Z,1014.14
2018-07-16T02:49:50.263Z,1014.10
2018-07-16T02:50:50.238Z,1014.13
2018-07-16T02:51:50.219Z,1014.12
2018-07-16T02:52:50.194Z,1014.14
2018-07-16T02:53:50.171Z,1014.12
2018-07-16T02:54:50.141Z,1014.15
2018-07-16T02:55:50.117Z,1014.11
2018-07-16T02:56:50.091Z,1014.13
2018-07-16T02:57:50.067Z,1014.12
2018-07-16T02:58:50.043Z,1014.12
2018-07-16T02:59:50.019Z,1014.09
2018-07-16T03:00:49.995Z,1014.09
2018-07-16T03:01:49.969Z,1014.09
2018-07-16T03:02:49.944Z,1014.11
2018-07-16T03:03:49.923Z,1014.10
2018-07-16T03:04:49.896Z,1014.11
2018-07-16T03:05:49.876Z,1014.08
2018-07-16T03:06:49.849Z,1014.08
2018-07-16T03:07:49.823Z,1014.03
2018-07-16T03:08:49.801Z,1014.07
2018-07-16T03:09:49.774Z,1014.08
2018-07-16T03:10:49.749Z,1014.07
2018-07-16T03:11:49.740Z,1014.07
2018-07-16T03:12:49.859Z,1014.06
2018-07-16T03:13:49.681Z,1014.05
2018-07-16T03:14:49.653Z,1014.04
2018-07-16T03:15:49.627Z,1014.02
2018-07-16T03:16:49.604Z,1014.03
2018-07-16T03:17:49.580Z,1014.04
2018-07-16T03:18:49.556Z,1014.05
2018-07-16T03:19:49.529Z,1014.03
2018-07-16T03:20:49.504Z,1014.07
2018-07-16T03:21:49.481Z,1014.05
2018-07-16T03:22:49.457Z,1014.05
2018-07-16T03:23:49.434Z,1014.06
2018-07-16T03:24:50.465Z,1014.04
2018-07-16T03:25:49.388Z,1014.07
2018-07-16T03:26:49.361Z,1014.09
2018-07-16T03:27:49.333Z,1014.11
2018-07-16T03:28:49.309Z,1014.11
2018-07-16T03:29:49.283Z,1014.10
2018-07-16T03:30:49.410Z,1014.14
2018-07-16T03:31:49.235Z,1014.13
2018-07-16T03:32:49.211Z,1014.13
2018-07-16T03:33:49.187Z,1014.11
2018-07-16T03:34:49.161Z,1014.16
2018-07-16T03:35:49.140Z,1014.14
2018-07-16T03:36:49.119Z,1014.15
2018-07-16T03:37:49.090Z,1014.11
2018-07-16T03:38:49.065Z,1014.12
2018-07-16T03:39:49.041Z,1014.13
2018-07-16T03:40:49.015Z,1014.09
2018-07-16T03:41:48.989Z,1014.14
2018-07-16T03:42:48.966Z,1014.15
2018-07-16T03:43:48.943Z,1014.13
2018-07-16T03:44:48.922Z,1014.11
2018-07-16T03:45:48.892Z,1014.17
2018-07-16T03:46:48.870Z,1014.18
2018-07-16T03:47:48.846Z,1014.17
2018-07-16T03:48:48.831Z,1014.15
2018-07-16T03:49:48.796Z,1014.19
2018-07-16T03:50:48.772Z,1014.25
2018-07-16T03:51:48.744Z,1014.24
2018-07-16T03:52:48.722Z,1014.27
2018-07-16T03:53:48.856Z,1014.29
2018-07-16T03:54:48.673Z,1014.29
2018-07-16T03:55:48.657Z,1014.30
2018-07-16T03:56:48.625Z,1014.31
2018-07-16T03:57:48.601Z,1014.33
2018-07-16T03:58:48.578Z,1014.35
2018-07-16T03:59:48.552Z,1014.34
2018-07-16T04:00:48.529Z,1014.39
2018-07-16T04:01:48.503Z,1014.40
2018-07-16T04:02:48.479Z,1014.41
2018-07-16T04:03:48.458Z,1014.42
2018-07-16T04:04:48.432Z,1014.43
2018-07-16T04:05:48.408Z,1014.47
2018-07-16T04:06:48.384Z,1014.44
2018-07-16T04:07:48.365Z,1014.46
2018-07-16T04:08:48.340Z,1014.45
2018-07-16T04:09:48.316Z,1014.46
2018-07-16T04:10:48.295Z,1014.47
2018-07-16T04:11:48.268Z,1014.46
2018-07-16T04:12:48.244Z,1014.43
2018-07-16T04:13:48.218Z,1014.43
2018-07-16T04:14:48.197Z,1014.43
2018-07-16T04:15:48.176Z,1014.43
2018-07-16T04:16:48.153Z,1014.46
2018-07-16T04:17:48.132Z,1014.46
2018-07-16T04:18:48.105Z,1014.45
2018-07-16T04:19:48.084Z,1014.46
2018-07-16T04:20:48.060Z,1014.44
2018-07-16T04:21:48.036Z,1014.44
2018-07-16T04:22:48.020Z,1014.38
2018-07-16T04:23:47.989Z,1014.40
2018-07-16T04:24:47.968Z,1014.43
2018-07-16T04:25:47.951Z,1014.39
2018-07-16T04:26:47.922Z,1014.38
2018-07-16T04:27:47.903Z,1014.39
2018-07-16T04:28:47.879Z,1014.42
2018-07-16T04:29:47.856Z,1014.45
2018-07-16T04:30:47.843Z,1014.46
2018-07-16T04:31:47.810Z,1014.48
2018-07-16T04:32:47.789Z,1014.48
2018-07-16T04:33:47.766Z,1014.46
2018-07-16T04:34:47.892Z,1014.48
2018-07-16T04:35:47.722Z,1014.45
2018-07-16T04:36:47.701Z,1014.44
2018-07-16T04:37:47.676Z,1014.48
2018-07-16T04:38:47.655Z,1014.47
2018-07-16T04:39:47.643Z,1014.48
2018-07-16T04:40:47.667Z,1014.54
2018-07-16T04:41:47.591Z,1014.59
2018-07-16T04:42:47.570Z,1014.64
2018-07-16T04:43:47.546Z,1014.61
2018-07-16T04:44:47.525Z,1014.60
2018-07-16T04:45:47.503Z,1014.55
2018-07-16T04:46:47.482Z,1014.56
2018-07-16T04:47:47.461Z,1014.60
2018-07-16T04:48:47.441Z,1014.59
2018-07-16T04:49:47.418Z,1014.59
2018-07-16T04:50:47.396Z,1014.57
2018-07-16T04:51:47.375Z,1014.61
2018-07-16T04:52:47.556Z,1014.59
2018-07-16T04:53:47.537Z,1014.61
2018-07-16T04:54:47.309Z,1014.65
2018-07-16T04:55:47.292Z,1014.67
2018-07-16T04:56:47.270Z,1014.73
2018-07-16T04:57:47.249Z,1014.85
2018-07-16T04:58:47.231Z,1014.97
2018-07-16T04:59:47.207Z,1015.01
2018-07-16T05:00:47.188Z,1015.01
2018-07-16T05:01:47.164Z,1014.97
2018-07-16T05:02:47.143Z,1015.02
2018-07-16T05:03:47.124Z,1015.10
2018-07-16T05:04:47.105Z,1015.15
2018-07-16T05:05:47.082Z,1015.20
2018-07-16T05:06:47.062Z,1015.20
2018-07-16T05:07:47.040Z,1015.23
2018-07-16T05:08:47.022Z,1015.36
2018-07-16T05:09:47.002Z,1015.44
2018-07-16T05:10:47.181Z,1015.43
2018-07-16T05:11:46.958Z,1015.63
2018-07-16T05:12:46.936Z,1015.89
2018-07-16T05:13:47.118Z,1016.15
2018-07-16T05:14:46.903Z,1016.87
2018-07-16T05:15:46.877Z,1016.91
2018-07-16T05:16:47.062Z,1016.48
2018-07-16T05:17:47.039Z,1015.53
2018-07-16T05:18:46.816Z,1015.08
2018-07-16T05:19:46.798Z,1015.08
2018-07-16T05:20:46.775Z,1015.07
2018-07-16T05:21:46.756Z,1015.04
2018-07-16T05:22:46.736Z,1015.03
2018-07-16T05:23:46.717Z,1015.02
2018-07-16T05:24:46.898Z,1015.03
2018-07-16T05:25:50.107Z,1015.06
2018-07-16T05:26:46.861Z,1015.09
2018-07-16T05:27:46.639Z,1015.08
2018-07-16T05:28:46.821Z,1015.08
2018-07-16T05:29:46.801Z,1015.04
2018-07-16T05:30:46.581Z,1015.04
2018-07-16T05:31:46.628Z,1015.07
2018-07-16T05:32:46.802Z,1015.07
2018-07-16T05:33:46.520Z,1015.05
2018-07-16T05:34:46.703Z,1015.01
2018-07-16T05:35:46.484Z,1015.04
2018-07-16T05:36:46.474Z,1015.05
2018-07-16T05:37:46.445Z,1015.03
2018-07-16T05:38:46.427Z,1015.01
2018-07-16T05:39:46.413Z,1014.97
2018-07-16T05:40:46.392Z,1015.02
2018-07-16T05:41:46.370Z,1015.01
2018-07-16T05:42:46.352Z,1015.03
2018-07-16T05:43:46.332Z,1015.11
2018-07-16T05:44:46.525Z,1015.11
2018-07-16T05:45:46.499Z,1015.14
2018-07-16T05:47:28.640Z,1015.17
2018-07-16T05:48:28.616Z,1015.18
2018-07-16T05:49:28.597Z,1015.23
2018-07-16T05:50:28.582Z,1015.15
2018-07-16T05:52:10.719Z,1015.16
2018-07-16T05:53:10.498Z,1015.20
2018-07-16T05:54:52.838Z,1015.18
2018-07-16T05:55:52.620Z,1015.22
2018-07-16T05:58:17.164Z,1015.30
2018-07-16T05:59:16.895Z,1015.33
2018-07-16T06:24:52.539Z,1015.87
2018-07-16T06:25:52.521Z,1015.99
2018-07-16T06:26:52.302Z,1016.03
2018-07-16T06:27:52.893Z,1015.97
2018-07-16T06:28:52.471Z,1015.92
2018-07-16T06:29:52.454Z,1015.88
2018-07-16T06:30:52.439Z,1015.93
2018-07-16T06:31:52.419Z,1015.93
2018-07-16T06:32:52.204Z,1015.96
2018-07-16T06:33:52.186Z,1015.91
2018-07-16T06:34:52.171Z,1015.87
2018-07-16T06:35:52.155Z,1015.90
2018-07-16T06:36:52.139Z,1015.82
2018-07-16T06:37:52.123Z,1015.84
2018-07-16T06:38:52.107Z,1015.81
2018-07-16T06:39:52.093Z,1015.78
2018-07-16T06:40:52.436Z,1015.74
2018-07-16T06:41:52.262Z,1015.81
2018-07-16T06:42:52.247Z,1015.79
2018-07-16T06:43:52.233Z,1015.75
2018-07-16T06:44:52.012Z,1015.75
2018-07-16T06:45:52.198Z,1015.77
2018-07-16T06:46:51.997Z,1015.73
2018-07-16T06:47:52.215Z,1015.72
2018-07-16T06:48:51.954Z,1015.69
2018-07-16T06:49:51.938Z,1015.68
2018-07-16T06:50:52.126Z,1015.71
2018-07-16T06:51:52.112Z,1015.76
2018-07-16T06:52:52.094Z,1015.78
2018-07-16T06:53:51.876Z,1015.69
2018-07-16T06:54:51.863Z,1015.73
2018-07-16T06:55:52.050Z,1015.72
2018-07-16T06:56:51.835Z,1015.70
2018-07-16T06:57:51.818Z,1015.77
2018-07-16T06:58:52.010Z,1015.72
2018-07-16T06:59:51.996Z,1015.70
2018-07-16T07:00:51.980Z,1015.70
2018-07-16T07:01:51.763Z,1015.69
2018-07-16T07:02:51.952Z,1015.73
2018-07-16T07:03:51.737Z,1015.69
2018-07-16T07:04:51.723Z,1015.69
2018-07-16T07:05:51.705Z,1015.74
2018-07-16T07:06:52.711Z,1015.65
2018-07-16T07:07:51.882Z,1015.67
2018-07-16T07:08:51.882Z,1015.70
2018-07-16T07:09:51.650Z,1015.66
2018-07-16T07:10:51.842Z,1015.67
2018-07-16T07:11:51.623Z,1015.72
2018-07-16T07:12:51.814Z,1015.74
2018-07-16T07:13:51.597Z,1015.75
2018-07-16T07:14:51.583Z,1015.73
2018-07-16T07:15:51.569Z,1015.75
2018-07-16T07:16:51.757Z,1015.68
2018-07-16T07:17:51.541Z,1015.73
2018-07-16T07:18:51.679Z,1015.74
2018-07-16T07:19:51.517Z,1015.73
2018-07-16T07:20:51.504Z,1015.72
2018-07-16T07:21:51.693Z,1015.67
2018-07-16T07:22:51.479Z,1015.64
2018-07-16T07:23:51.463Z,1015.61
2018-07-16T07:24:51.448Z,1015.63
2018-07-16T07:25:51.436Z,1015.61
2018-07-16T07:26:51.625Z,1015.58
2018-07-16T07:27:51.421Z,1015.58
2018-07-16T07:28:51.406Z,1015.57
2018-07-16T07:29:51.390Z,1015.54
2018-07-16T07:30:51.373Z,1015.56
2018-07-16T07:31:51.356Z,1015.60
2018-07-16T07:32:51.345Z,1015.60
2018-07-16T07:33:51.331Z,1015.59
2018-07-16T07:34:51.318Z,1015.58
2018-07-16T07:35:51.331Z,1015.59
2018-07-16T07:36:51.295Z,1015.54
2018-07-16T07:37:51.288Z,1015.56
2018-07-16T07:38:51.270Z,1015.54
2018-07-16T07:39:51.253Z,1015.51
2018-07-16T07:40:51.250Z,1015.48
2018-07-16T07:41:51.231Z,1015.47
2018-07-16T07:42:51.220Z,1015.48
2018-07-16T07:43:51.201Z,1015.50
2018-07-16T07:44:51.389Z,1015.48
2018-07-16T07:45:51.780Z,1015.47
2018-07-16T07:46:51.160Z,1015.49
2018-07-16T07:47:52.160Z,1015.50
2018-07-16T07:48:51.137Z,1015.53
2018-07-16T07:49:51.123Z,1015.49
2018-07-16T07:50:53.934Z,1015.46
2018-07-16T07:51:51.299Z,1015.46
2018-07-16T07:54:15.823Z,1015.42
2018-07-16T07:55:15.907Z,1015.42
2018-07-16T07:56:15.586Z,1015.39
2018-07-16T07:57:15.571Z,1015.38
2018-07-16T07:58:15.561Z,1015.42
2018-07-16T07:59:15.546Z,1015.40
2018-07-16T08:00:15.533Z,1015.39
2018-07-16T08:01:15.316Z,1015.39
2018-07-16T08:02:15.507Z,1015.31
2018-07-16T08:03:16.391Z,1015.35
2018-07-16T08:04:18.102Z,1015.32
2018-07-16T08:05:15.472Z,1015.31
2018-07-16T08:06:15.459Z,1015.30
2018-07-16T08:07:15.245Z,1015.28
2018-07-16T08:08:15.445Z,1015.32
2018-07-16T08:09:15.426Z,1015.26
2018-07-16T08:10:15.414Z,1015.30
2018-07-16T08:11:15.200Z,1015.31
2018-07-16T08:12:15.389Z,1015.31
2018-07-16T08:13:15.377Z,1015.25
2018-07-16T08:14:15.163Z,1015.28
2018-07-16T08:15:15.364Z,1015.33
2018-07-16T08:16:15.142Z,1015.21
2018-07-16T08:17:15.138Z,1015.20
2018-07-16T08:18:15.120Z,1015.26
2018-07-16T08:19:15.108Z,1015.16
2018-07-16T08:20:15.096Z,1015.15
2018-07-16T08:21:15.084Z,1015.21
2018-07-16T08:22:15.074Z,1015.25
2018-07-16T08:23:15.066Z,1015.20
2018-07-16T08:24:15.051Z,1015.24
2018-07-16T08:25:15.041Z,1015.21
2018-07-16T08:26:15.029Z,1015.18
2018-07-16T08:27:15.019Z,1015.22
2018-07-16T08:28:15.083Z,1015.21
2018-07-16T08:29:14.997Z,1015.16
2018-07-16T08:30:14.986Z,1015.12
2018-07-16T08:31:14.975Z,1015.07
2018-07-16T08:32:14.966Z,1015.06
2018-07-16T08:33:14.953Z,1015.07
2018-07-16T08:34:14.940Z,1015.11
2018-07-16T08:35:14.928Z,1015.07
2018-07-16T08:36:14.918Z,1015.09
2018-07-16T08:37:14.908Z,1015.08
2018-07-16T08:38:14.897Z,1015.05
2018-07-16T08:39:14.983Z,1015.05
2018-07-16T08:40:14.877Z,1015.02
2018-07-16T08:41:14.867Z,1014.83
2018-07-16T08:42:14.854Z,1014.91
2018-07-16T08:43:15.045Z,1015.02
2018-07-16T08:44:14.831Z,1015.01
2018-07-16T08:45:15.021Z,1014.97
2018-07-16T08:46:15.039Z,1015.02
2018-07-16T08:47:14.999Z,1015.05
2018-07-16T08:48:14.989Z,1015.15
2018-07-16T08:49:18.414Z,1015.07
2018-07-16T08:50:14.972Z,1015.08
2018-07-16T08:51:14.959Z,1014.97
2018-07-16T08:52:14.948Z,1014.99
2018-07-16T08:53:14.937Z,1014.95
2018-07-16T08:54:14.933Z,1014.93
2018-07-16T08:55:14.713Z,1013.66
2018-07-16T08:56:14.705Z,1013.70
2018-07-16T08:57:14.895Z,1015.01
2018-07-16T08:58:14.892Z,1014.40
2018-07-16T08:59:57.037Z,1013.92
2018-07-16T09:01:39.390Z,1013.78
2018-07-16T09:02:38.972Z,1013.88
2018-07-16T09:03:39.161Z,1014.13
2018-07-16T09:04:39.149Z,1013.88
2018-07-16T09:05:41.757Z,1014.85
2018-07-16T09:06:39.121Z,1015.09
2018-07-16T09:07:38.908Z,1015.15
2018-07-16T09:08:38.893Z,1015.21
2018-07-16T09:09:38.883Z,1015.22
2018-07-16T09:10:38.868Z,1015.27
2018-07-16T09:11:38.856Z,1015.27
2018-07-16T09:12:38.847Z,1015.22
2018-07-16T09:13:38.912Z,1015.22
2018-07-16T09:14:38.837Z,1015.23
2018-07-16T09:15:38.806Z,1015.16
2018-07-16T09:16:38.997Z,1015.12
2018-07-16T09:17:38.986Z,1015.09
2018-07-16T09:19:21.443Z,1014.19
2018-07-16T09:20:21.128Z,1015.16
2018-07-16T09:21:25.014Z,1015.19
2018-07-16T09:22:23.723Z,1014.25
2018-07-16T09:24:46.020Z,1014.79
2018-07-16T09:30:16.199Z,1015.18
2018-07-16T09:31:58.345Z,1014.28
2018-07-16T09:32:58.131Z,1015.08
2018-07-16T09:33:58.320Z,1015.54
2018-07-16T09:35:00.934Z,1015.50
2018-07-16T09:38:07.203Z,1014.51
2018-07-16T09:39:04.859Z,1014.22
2018-07-16T09:41:29.083Z,1014.13
2018-07-16T09:45:17.720Z,1013.94
2018-07-16T09:46:21.542Z,1013.73
2018-07-16T10:02:45.241Z,1013.62
2018-07-16T10:03:45.027Z,1013.83
2018-07-16T10:04:45.010Z,1013.85
2018-07-16T10:05:45.000Z,1013.81
2018-07-16T10:06:44.990Z,1013.79
2018-07-16T10:07:45.005Z,1013.78
2018-07-16T10:08:44.962Z,1013.79
2018-07-16T10:09:44.951Z,1013.81
2018-07-16T10:10:44.939Z,1013.85
2018-07-16T10:11:44.922Z,1013.82
2018-07-16T10:15:45.077Z,1013.88
2018-07-16T10:16:47.955Z,1013.94
2018-07-16T10:19:54.168Z,1013.93
2018-07-16T10:20:53.953Z,1013.97
2018-07-16T10:21:51.525Z,1014.00
2018-07-16T10:22:51.515Z,1014.04
2018-07-16T10:23:51.505Z,1013.99
2018-07-16T10:26:20.410Z,1013.98
2018-07-16T10:30:04.466Z,1014.03
2018-07-16T10:31:04.459Z,1013.93
2018-07-16T10:32:04.244Z,1013.96
2018-07-16T10:33:07.062Z,1014.01
2018-07-16T10:34:05.240Z,1014.05
2018-07-16T10:35:04.449Z,1014.01
2018-07-16T10:36:04.212Z,1013.49
2018-07-16T10:37:04.202Z,1013.69
2018-07-16T10:38:04.194Z,1013.93
2018-07-16T10:39:04.188Z,1013.77
2018-07-16T10:40:04.176Z,1013.85
2018-07-16T10:41:04.171Z,1013.85
2018-07-16T10:42:04.163Z,1013.87
2018-07-16T10:43:04.158Z,1013.92
2018-07-16T10:44:04.144Z,1013.88
2018-07-16T10:45:04.136Z,1013.86
2018-07-16T10:46:04.128Z,1013.88
2018-07-16T10:47:04.121Z,1013.92
2018-07-16T10:48:04.110Z,1013.92
2018-07-16T10:49:04.102Z,1013.97
2018-07-16T10:50:04.094Z,1013.93
2018-07-16T10:51:04.097Z,1014.00
2018-07-16T10:52:04.077Z,1013.99
2018-07-16T10:53:04.070Z,1014.04
2018-07-16T10:54:04.063Z,1014.01
2018-07-16T10:55:04.055Z,1014.02
2018-07-16T10:56:04.046Z,1014.05
2018-07-16T10:57:04.036Z,1014.06
2018-07-16T10:58:04.028Z,1014.09
2018-07-16T10:59:04.019Z,1014.11
2018-07-16T11:00:04.014Z,1014.11
2018-07-16T11:01:04.010Z,1014.10
2018-07-16T11:02:04.069Z,1014.14
2018-07-16T11:03:04.078Z,1014.13
2018-07-16T11:04:03.977Z,1014.25
2018-07-16T11:05:03.972Z,1014.28
2018-07-16T11:06:03.967Z,1014.26
2018-07-16T11:07:03.955Z,1014.28
2018-07-16T11:08:03.949Z,1014.34
2018-07-16T11:09:03.937Z,1014.40
2018-07-16T11:10:03.932Z,1014.47
2018-07-16T11:11:03.927Z,1014.51
2018-07-16T11:12:03.927Z,1014.46
2018-07-16T11:13:03.921Z,1014.48
2018-07-16T11:14:04.135Z,1014.50
2018-07-16T11:15:04.178Z,1014.46
2018-07-16T11:16:04.108Z,1014.44
2018-07-16T11:17:04.085Z,1014.46
2018-07-16T11:18:04.081Z,1014.48
2018-07-16T11:19:03.872Z,1014.55
2018-07-16T11:20:03.862Z,1014.62
2018-07-16T11:21:03.860Z,1014.63
2018-07-16T11:22:04.054Z,1014.45
2018-07-16T11:23:04.044Z,1014.58
2018-07-16T11:24:04.035Z,1013.29
2018-07-16T11:25:03.828Z,1013.98
2018-07-16T11:26:03.823Z,1013.20
2018-07-16T11:27:03.812Z,1013.25
2018-07-16T11:28:04.016Z,1013.17
2018-07-16T11:29:03.999Z,1013.20
2018-07-16T11:30:03.988Z,1013.19
2018-07-16T11:31:03.976Z,1013.11
2018-07-16T11:32:03.970Z,1013.19
2018-07-16T11:33:03.758Z,1013.15
2018-07-16T11:34:03.955Z,1013.71
2018-07-16T11:35:03.741Z,1014.49
2018-07-16T11:36:03.726Z,1014.45
2018-07-16T11:37:03.712Z,1014.40
2018-07-16T11:38:03.701Z,1014.41
2018-07-16T11:39:03.694Z,1014.41
2018-07-16T11:40:03.678Z,1014.44
2018-07-16T11:41:03.674Z,1014.50
2018-07-16T11:42:03.660Z,1014.42
2018-07-16T11:43:03.647Z,1014.38
2018-07-16T11:44:03.638Z,1014.40
2018-07-16T11:45:03.626Z,1014.39
2018-07-16T12:01:31.391Z,1013.42
2018-07-16T12:02:31.176Z,1014.32
2018-07-16T12:03:31.238Z,1014.29
2018-07-16T12:04:31.155Z,1013.57
2018-07-16T12:05:31.144Z,1014.27
2018-07-16T12:06:31.131Z,1014.19
2018-07-16T12:07:31.120Z,1014.23
2018-07-16T12:08:31.111Z,1014.21
2018-07-16T12:09:31.096Z,1014.15
2018-07-16T12:10:31.087Z,1014.01
2018-07-16T12:11:31.073Z,1013.97
2018-07-16T12:12:31.084Z,1013.99
2018-07-16T12:13:31.059Z,1014.05
2018-07-16T12:14:31.047Z,1014.04
2018-07-16T12:15:31.038Z,1014.00
2018-07-16T12:16:31.030Z,1014.01
2018-07-16T12:17:31.021Z,1013.94
2018-07-16T12:18:31.011Z,1013.92
2018-07-16T12:19:31.205Z,1014.06
2018-07-16T12:20:31.263Z,1013.98
2018-07-16T12:21:30.984Z,1013.48
2018-07-16T12:22:30.974Z,1012.80
2018-07-16T12:23:30.967Z,1012.86
2018-07-16T12:24:30.960Z,1014.01
2018-07-16T12:25:30.954Z,1014.08
2018-07-16T12:26:30.953Z,1013.85
2018-07-16T12:27:30.942Z,1012.82
2018-07-16T12:28:30.927Z,1012.80
2018-07-16T12:29:30.922Z,1012.81
2018-07-16T12:30:30.908Z,1012.70
2018-07-16T12:31:30.899Z,1012.73
2018-07-16T12:32:30.890Z,1012.79
2018-07-16T12:33:30.879Z,1012.68
2018-07-16T12:34:30.876Z,1012.65
2018-07-16T12:36:31.052Z,1012.64
2018-07-16T12:37:30.837Z,1012.67
2018-07-16T12:46:57.013Z,1014.30
2018-07-16T12:49:21.266Z,1014.04
2018-07-16T12:55:58.525Z,1012.57
2018-07-16T12:56:58.310Z,1013.80
2018-07-16T12:57:58.299Z,1014.04
2018-07-16T13:02:23.389Z,1014.08
2018-07-16T13:04:04.931Z,1012.54
2018-07-16T13:08:04.880Z,1012.29
2018-07-16T13:09:04.867Z,1012.32
2018-07-16T13:10:04.652Z,1013.37
2018-07-16T13:11:04.840Z,1013.79
2018-07-16T13:12:04.634Z,1013.84
2018-07-16T13:13:04.611Z,1013.90
2018-07-16T13:14:05.424Z,1013.93
2018-07-16T13:15:04.787Z,1014.01
2018-07-16T13:16:04.777Z,1013.98
2018-07-16T13:17:04.761Z,1013.98
2018-07-16T13:18:46.913Z,1014.03
2018-07-16T13:19:46.902Z,1014.01
2018-07-16T13:20:46.897Z,1013.80
2018-07-16T13:21:46.928Z,1014.05
2018-07-16T13:22:46.868Z,1013.95
2018-07-16T13:23:46.654Z,1013.92
2018-07-16T13:27:35.493Z,1013.99
2018-07-16T13:28:35.282Z,1013.98
2018-07-16T13:29:35.270Z,1013.90
2018-07-16T13:30:35.464Z,1013.81
2018-07-16T13:31:38.283Z,1013.86
2018-07-16T13:32:35.443Z,1013.79
2018-07-16T13:33:35.233Z,1013.85
2018-07-16T13:34:35.422Z,1013.86
2018-07-16T13:35:35.412Z,1013.93
2018-07-16T13:36:35.200Z,1013.96
2018-07-16T13:37:35.191Z,1013.95
2018-07-16T13:38:35.183Z,1014.05
2018-07-16T13:39:35.177Z,1014.16
2018-07-16T13:40:35.164Z,1014.19
2018-07-16T13:41:35.154Z,1014.28
2018-07-16T13:42:35.210Z,1014.44
2018-07-16T13:43:35.137Z,1014.57
2018-07-16T13:44:35.128Z,1014.63
2018-07-16T13:45:35.321Z,1014.69
2018-07-16T13:46:35.155Z,1014.72
2018-07-16T13:47:35.099Z,1014.82
2018-07-16T13:48:35.291Z,1014.99
2018-07-16T13:49:37.905Z,1015.20
2018-07-16T13:50:35.275Z,1015.37
2018-07-16T13:51:35.071Z,1015.44
2018-07-16T13:52:35.263Z,1015.54
2018-07-16T13:53:35.049Z,1015.68
2018-07-16T13:54:35.037Z,1015.94
2018-07-16T13:55:35.029Z,1016.11
2018-07-16T13:56:35.020Z,1016.26
2018-07-16T13:57:35.014Z,1016.38